createdAt,value
2019-04-09T00:00:25.216Z,10.20
2019-04-09T00:03:13.767Z,10.20
2019-04-09T00:05:44.982Z,10.20
2019-04-09T00:08:16.094Z,10.10
2019-04-09T00:10:46.839Z,10.20
2019-04-09T00:13:19.270Z,10.20
2019-04-09T00:15:50.055Z,10.20
2019-04-09T00:18:21.149Z,10.10
2019-04-09T00:20:51.723Z,10.10
2019-04-09T00:23:22.585Z,10.10
2019-04-09T00:25:53.479Z,10.10
2019-04-09T00:28:24.946Z,10.10
2019-04-09T00:30:55.976Z,10.00
2019-04-09T00:33:26.715Z,10.00
2019-04-09T00:35:57.300Z,10.00
2019-04-09T00:38:29.248Z,9.90
2019-04-09T00:40:59.936Z,9.90
2019-04-09T00:43:30.906Z,9.90
2019-04-09T00:46:01.572Z,9.90
2019-04-09T00:48:32.235Z,9.90
2019-04-09T00:51:02.809Z,9.90
2019-04-09T00:53:34.166Z,9.80
2019-04-09T00:56:05.060Z,9.80
2019-04-09T00:58:36.664Z,9.70
2019-04-09T01:01:10.012Z,9.70
2019-04-09T01:03:40.966Z,9.60
2019-04-09T01:06:11.700Z,9.30
2019-04-09T01:08:42.275Z,8.70
2019-04-09T01:11:13.366Z,8.60
2019-04-09T01:13:43.947Z,8.60
2019-04-09T01:16:15.716Z,8.70
2019-04-09T01:18:46.412Z,9.00
2019-04-09T01:21:17.056Z,9.20
2019-04-09T01:23:49.151Z,9.40
2019-04-09T01:26:38.387Z,9.50
2019-04-09T01:29:18.145Z,9.10
2019-04-09T01:32:08.806Z,8.80
2019-04-09T01:35:10.706Z,8.80
2019-04-09T01:37:53.330Z,8.70
2019-04-09T01:40:50.286Z,9.00
2019-04-09T01:43:38.808Z,9.00
2019-04-09T01:46:41.501Z,8.80
2019-04-09T01:49:43.896Z,8.60
2019-04-09T01:52:39.342Z,8.70
2019-04-09T01:55:27.964Z,8.70
2019-04-09T01:58:18.761Z,8.90
2019-04-09T02:01:17.993Z,8.90
2019-04-09T02:04:14.352Z,8.80
2019-04-09T02:07:03.117Z,8.90
2019-04-09T02:09:51.775Z,8.90
2019-04-09T02:12:42.687Z,9.00
2019-04-09T02:15:35.197Z,9.10
2019-04-09T02:18:38.256Z,9.10
2019-04-09T02:21:40.145Z,9.00
2019-04-09T02:24:28.584Z,9.00
2019-04-09T02:27:40.045Z,9.00
2019-04-09T02:30:19.227Z,8.90
2019-04-09T02:33:19.344Z,9.00
2019-04-09T02:36:07.967Z,8.90
2019-04-09T02:38:59.181Z,9.00
2019-04-09T02:41:42.714Z,9.00
2019-04-09T02:44:33.060Z,8.90
2019-04-09T02:47:17.871Z,8.90
2019-04-09T02:49:58.545Z,8.80
2019-04-09T02:52:40.134Z,8.70
2019-04-09T02:55:24.940Z,8.40
2019-04-09T02:58:18.359Z,8.40
2019-04-09T03:01:00.561Z,8.30
2019-04-09T03:03:54.292Z,8.40
2019-04-09T03:06:48.316Z,8.40
2019-04-09T03:09:38.258Z,8.40
2019-04-09T03:12:27.262Z,8.30
2019-04-09T03:15:09.568Z,8.40
2019-04-09T03:17:53.309Z,8.50
2019-04-09T03:20:50.815Z,8.30
2019-04-09T03:23:58.831Z,8.20
2019-04-09T03:26:47.398Z,8.30
2019-04-09T03:29:32.156Z,8.40
2019-04-09T03:32:16.766Z,8.30
2019-04-09T03:35:05.450Z,8.40
2019-04-09T03:37:53.245Z,8.50
2019-04-09T03:40:31.594Z,8.50
2019-04-09T03:43:20.946Z,8.40
2019-04-09T03:46:26.053Z,8.30
2019-04-09T03:49:16.944Z,8.20
2019-04-09T03:52:18.754Z,8.30
2019-04-09T03:55:08.240Z,8.10
2019-04-09T03:58:13.860Z,8.00
2019-04-09T04:01:01.712Z,7.90
2019-04-09T04:03:50.348Z,7.70
2019-04-09T04:06:40.623Z,7.60
2019-04-09T04:09:31.421Z,7.50
2019-04-09T04:12:26.325Z,7.50
2019-04-09T04:15:27.990Z,7.50
2019-04-09T04:18:09.380Z,7.50
2019-04-09T04:21:07.862Z,7.50
2019-04-09T04:23:47.498Z,7.60
2019-04-09T04:26:55.300Z,7.80
2019-04-09T04:30:00.274Z,7.90
2019-04-09T04:33:02.555Z,7.90
2019-04-09T04:35:42.692Z,8.10
2019-04-09T04:38:45.560Z,8.10
2019-04-09T04:41:45.387Z,8.10
2019-04-09T04:44:44.672Z,7.90
2019-04-09T04:47:46.588Z,7.90
2019-04-09T04:50:36.110Z,7.80
2019-04-09T04:53:24.726Z,7.90
2019-04-09T04:56:05.601Z,7.70
2019-04-09T04:58:50.045Z,7.70
2019-04-09T05:01:38.918Z,7.70
2019-04-09T05:04:29.478Z,7.70
2019-04-09T05:07:34.513Z,7.70
2019-04-09T05:10:15.208Z,7.80
2019-04-09T05:13:21.064Z,8.10
2019-04-09T05:16:10.333Z,8.30
2019-04-09T05:19:06.615Z,8.50
2019-04-09T05:22:06.476Z,8.60
2019-04-09T05:25:07.245Z,8.60
2019-04-09T05:28:06.732Z,8.70
2019-04-09T05:30:59.509Z,8.50
2019-04-09T05:33:51.898Z,8.30
2019-04-09T05:36:31.980Z,8.20
2019-04-09T05:39:34.402Z,8.20
2019-04-09T05:42:24.036Z,8.30
2019-04-09T05:45:23.506Z,8.40
2019-04-09T05:48:29.622Z,8.50
2019-04-09T05:51:17.556Z,8.60
2019-04-09T05:54:07.175Z,8.80
2019-04-09T05:56:56.434Z,8.90
2019-04-09T05:59:46.138Z,8.90
2019-04-09T06:02:35.951Z,9.00
2019-04-09T06:05:25.103Z,8.90
2019-04-09T06:08:02.018Z,9.00
2019-04-09T06:10:32.934Z,8.80
2019-04-09T06:13:03.536Z,8.90
2019-04-09T06:15:34.106Z,8.90
2019-04-09T06:18:05.813Z,9.00
2019-04-09T06:20:36.537Z,9.10
2019-04-09T06:23:07.819Z,9.30
2019-04-09T06:25:38.459Z,9.30
2019-04-09T06:28:10.703Z,9.40
2019-04-09T06:30:41.869Z,9.40
2019-04-09T06:33:19.977Z,9.40
2019-04-09T06:36:15.598Z,9.40
2019-04-09T06:38:54.326Z,9.40
2019-04-09T06:41:35.342Z,9.40
2019-04-09T06:44:12.695Z,9.40
2019-04-09T06:47:12.639Z,9.30
2019-04-09T06:49:49.100Z,9.40
2019-04-09T06:52:24.939Z,9.40
2019-04-09T06:55:09.597Z,9.30
2019-04-09T06:58:02.548Z,9.30
2019-04-09T07:00:51.024Z,9.30
2019-04-09T07:03:46.940Z,9.20
2019-04-09T07:06:39.575Z,9.20
2019-04-09T07:09:41.343Z,9.40
2019-04-09T07:12:21.897Z,9.40
2019-04-09T07:14:59.303Z,9.40
2019-04-09T07:17:49.492Z,9.40
2019-04-09T07:20:39.923Z,9.50
2019-04-09T07:23:32.580Z,9.60
2019-04-09T07:26:23.398Z,9.60
2019-04-09T07:29:11.903Z,9.50
2019-04-09T07:32:01.884Z,9.60
2019-04-09T07:34:52.213Z,9.70
2019-04-09T07:37:44.400Z,9.90
2019-04-09T07:40:52.679Z,10.00
2019-04-09T07:43:30.794Z,10.10
2019-04-09T07:46:19.095Z,10.20
2019-04-09T07:49:11.854Z,10.20
2019-04-09T07:52:05.094Z,10.30
2019-04-09T07:54:58.282Z,10.30
2019-04-09T07:57:39.299Z,10.30
2019-04-09T08:00:24.733Z,10.30
2019-04-09T08:03:31.074Z,10.20
2019-04-09T08:06:19.818Z,10.30
2019-04-09T08:09:12.941Z,10.40
2019-04-09T08:12:05.496Z,10.70
2019-04-09T08:14:58.588Z,10.80
2019-04-09T08:17:49.248Z,10.80
2019-04-09T08:20:42.036Z,10.90
2019-04-09T08:23:41.660Z,11.10
2019-04-09T08:26:42.386Z,11.20
2019-04-09T08:29:29.473Z,11.60
2019-04-09T08:32:21.493Z,11.80
2019-04-09T08:35:29.117Z,11.70
2019-04-09T08:38:20.266Z,11.90
2019-04-09T08:41:19.336Z,12.10
2019-04-09T08:44:20.332Z,12.00
2019-04-09T08:47:06.850Z,12.10
2019-04-09T08:50:12.472Z,12.10
2019-04-09T08:53:02.072Z,12.20
2019-04-09T08:55:43.087Z,12.70
2019-04-09T08:58:31.801Z,13.10
2019-04-09T09:01:40.287Z,13.20
2019-04-09T09:04:03.644Z,13.30
2019-04-09T09:06:53.302Z,13.30
2019-04-09T09:09:40.259Z,13.20
2019-04-09T09:12:26.615Z,13.50
2019-04-09T09:15:23.771Z,13.90
2019-04-09T09:18:16.086Z,13.80
2019-04-09T09:21:25.211Z,13.70
2019-04-09T09:24:06.335Z,13.70
2019-04-09T09:26:55.900Z,13.10
2019-04-09T09:29:45.505Z,13.10
2019-04-09T09:32:46.516Z,13.50
2019-04-09T09:35:47.760Z,13.60
2019-04-09T09:38:37.923Z,13.90
2019-04-09T09:41:28.410Z,14.30
2019-04-09T09:44:31.473Z,14.60
2019-04-09T09:47:22.693Z,14.70
2019-04-09T09:50:28.496Z,14.80
2019-04-09T09:53:07.901Z,14.80
2019-04-09T09:55:59.211Z,15.30
2019-04-09T09:58:45.702Z,15.30
2019-04-09T10:01:33.320Z,15.20
2019-04-09T10:04:24.947Z,15.20
2019-04-09T10:07:38.940Z,15.10
2019-04-09T10:10:19.071Z,15.40
2019-04-09T10:13:25.967Z,15.40
2019-04-09T10:16:35.041Z,15.60
2019-04-09T10:19:27.412Z,15.60
2019-04-09T10:22:11.601Z,15.50
2019-04-09T10:24:51.825Z,15.60
2019-04-09T10:27:39.717Z,15.60
2019-04-09T10:30:41.921Z,15.60
2019-04-09T10:33:32.246Z,15.70
2019-04-09T10:36:41.204Z,15.70
2019-04-09T10:39:34.070Z,15.90
2019-04-09T10:42:09.426Z,16.30
2019-04-09T10:44:50.428Z,16.40
2019-04-09T10:47:44.657Z,16.60
2019-04-09T10:50:42.469Z,16.10
2019-04-09T10:53:43.990Z,16.50
2019-04-09T10:56:33.400Z,16.30
2019-04-09T10:59:29.741Z,16.30
2019-04-09T11:02:28.264Z,16.10
2019-04-09T11:05:22.188Z,16.40
2019-04-09T11:08:06.970Z,16.70
2019-04-09T11:10:56.857Z,17.00
2019-04-09T11:13:46.479Z,17.20
2019-04-09T11:16:35.909Z,16.90
2019-04-09T11:19:27.698Z,17.00
2019-04-09T11:22:20.493Z,17.40
2019-04-09T11:25:10.280Z,18.30
2019-04-09T11:27:53.444Z,18.30
2019-04-09T11:30:43.008Z,17.80
2019-04-09T11:33:42.103Z,17.70
2019-04-09T11:36:31.224Z,18.10
2019-04-09T11:39:28.131Z,17.70
2019-04-09T11:42:17.091Z,17.80
2019-04-09T11:45:15.856Z,18.30
2019-04-09T11:48:11.834Z,18.70
2019-04-09T11:51:19.889Z,18.70
2019-04-09T11:54:09.453Z,18.50
2019-04-09T11:57:17.994Z,18.60
2019-04-09T12:00:06.344Z,18.70
2019-04-09T12:02:55.368Z,18.50
2019-04-09T12:05:47.386Z,18.00
2019-04-09T12:08:46.607Z,18.20
2019-04-09T12:11:37.011Z,19.10
2019-04-09T12:14:36.084Z,18.90
2019-04-09T12:17:24.516Z,18.50
2019-04-09T12:20:09.475Z,18.60
2019-04-09T12:22:55.336Z,18.70
2019-04-09T12:25:35.720Z,18.70
2019-04-09T12:28:17.782Z,18.20
2019-04-09T12:31:06.116Z,17.70
2019-04-09T12:33:55.855Z,17.40
2019-04-09T12:36:55.372Z,17.20
2019-04-09T12:39:42.244Z,17.00
2019-04-09T12:42:23.995Z,16.90
2019-04-09T12:45:07.043Z,16.60
2019-04-09T12:47:59.948Z,16.70
2019-04-09T12:50:56.401Z,16.80
2019-04-09T12:53:46.005Z,17.00
2019-04-09T12:56:33.195Z,17.20
2019-04-09T12:59:25.937Z,17.30
2019-04-09T13:02:26.253Z,17.20
2019-04-09T13:05:13.543Z,17.70
2019-04-09T13:08:02.540Z,18.20
2019-04-09T13:10:56.077Z,18.50
2019-04-09T13:13:57.817Z,18.50
2019-04-09T13:16:41.185Z,18.50
2019-04-09T13:19:22.636Z,19.20
2019-04-09T13:22:01.561Z,19.60
2019-04-09T13:24:51.079Z,19.60
2019-04-09T13:27:39.299Z,19.60
2019-04-09T13:30:17.801Z,19.50
2019-04-09T13:33:22.595Z,19.10
2019-04-09T13:36:14.247Z,18.40
2019-04-09T13:38:59.241Z,17.90
2019-04-09T13:41:44.354Z,17.40
2019-04-09T13:44:43.697Z,17.10
2019-04-09T13:47:33.832Z,16.70
2019-04-09T13:50:24.199Z,16.60
2019-04-09T13:52:56.156Z,16.70
2019-04-09T13:55:26.990Z,16.90
2019-04-09T13:57:58.256Z,16.80
2019-04-09T14:00:29.391Z,16.60
2019-04-09T14:03:31.337Z,16.90
2019-04-09T14:05:54.790Z,17.20
2019-04-09T14:08:25.822Z,17.70
2019-04-09T14:10:58.593Z,17.20
2019-04-09T14:13:28.872Z,17.40
2019-04-09T14:16:00.686Z,18.10
2019-04-09T14:18:32.471Z,18.30
2019-04-09T14:21:04.257Z,18.10
2019-04-09T14:23:35.025Z,18.00
2019-04-09T14:26:05.767Z,17.60
2019-04-09T14:28:37.647Z,17.50
2019-04-09T14:31:10.231Z,17.50
2019-04-09T14:33:40.914Z,17.70
2019-04-09T14:36:11.843Z,17.20
2019-04-09T14:38:42.656Z,17.00
2019-04-09T14:41:14.243Z,16.70
2019-04-09T14:43:46.836Z,16.50
2019-04-09T14:46:17.778Z,16.60
2019-04-09T14:48:48.358Z,17.00
2019-04-09T14:51:19.407Z,16.80
2019-04-09T14:53:50.916Z,16.70
2019-04-09T14:56:21.549Z,16.80
2019-04-09T14:58:52.225Z,16.70
2019-04-09T15:01:22.785Z,16.60
2019-04-09T15:03:53.404Z,16.30
2019-04-09T15:06:24.260Z,16.00
2019-04-09T15:08:54.944Z,16.00
2019-04-09T15:11:25.620Z,16.00
2019-04-09T15:13:57.228Z,16.10
2019-04-09T15:16:28.183Z,16.00
2019-04-09T15:18:59.167Z,16.00
2019-04-09T15:21:37.769Z,16.00
2019-04-09T15:24:09.450Z,15.90
2019-04-09T15:26:40.135Z,15.90
2019-04-09T15:29:10.690Z,15.90
2019-04-09T15:31:41.668Z,15.90
2019-04-09T15:34:12.219Z,15.70
2019-04-09T15:36:43.390Z,15.60
2019-04-09T15:39:17.860Z,15.70
2019-04-09T15:41:48.949Z,15.80
2019-04-09T15:44:22.517Z,15.70
2019-04-09T15:46:51.968Z,15.60
2019-04-09T15:49:22.581Z,15.50
2019-04-09T15:51:53.477Z,15.40
2019-04-09T15:54:24.064Z,15.30
2019-04-09T15:56:55.128Z,15.10
2019-04-09T15:59:26.100Z,15.00
2019-04-09T16:01:58.163Z,15.00
2019-04-09T16:04:30.174Z,15.00
2019-04-09T16:07:01.592Z,15.20
2019-04-09T16:09:33.311Z,15.30
2019-04-09T16:12:04.360Z,15.10
2019-04-09T16:14:36.279Z,14.90
2019-04-09T16:17:07.003Z,14.80
2019-04-09T16:19:37.639Z,14.80
2019-04-09T16:22:09.283Z,14.80
2019-04-09T16:24:40.403Z,14.80
2019-04-09T16:27:11.412Z,14.70
2019-04-09T16:29:42.147Z,14.60
2019-04-09T16:32:12.913Z,14.60
2019-04-09T16:34:44.099Z,14.50
2019-04-09T16:37:16.995Z,14.50
2019-04-09T16:39:48.405Z,14.40
2019-04-09T16:42:29.421Z,14.30
2019-04-09T16:44:59.243Z,14.30
2019-04-09T16:47:24.911Z,14.20
2019-04-09T16:49:56.335Z,14.20
2019-04-09T16:52:27.132Z,14.20
2019-04-09T16:54:58.070Z,14.20
2019-04-09T16:57:29.663Z,14.20
2019-04-09T17:00:00.855Z,14.20
2019-04-09T17:02:32.362Z,14.20
2019-04-09T17:05:03.028Z,14.20
2019-04-09T17:07:33.677Z,14.10
2019-04-09T17:10:05.692Z,14.10
2019-04-09T17:12:37.109Z,14.10
2019-04-09T17:15:09.219Z,14.10
2019-04-09T17:17:40.430Z,14.10
2019-04-09T17:20:13.061Z,14.10
2019-04-09T17:22:44.937Z,13.90
2019-04-09T17:25:16.645Z,13.80
2019-04-09T17:27:47.312Z,13.70
2019-04-09T17:30:17.984Z,13.70
2019-04-09T17:32:48.616Z,13.60
2019-04-09T17:35:19.169Z,13.50
2019-04-09T17:37:50.594Z,13.50
2019-04-09T17:40:21.243Z,13.40
2019-04-09T17:42:51.904Z,13.30
2019-04-09T17:45:22.476Z,13.10
2019-04-09T17:47:53.061Z,12.90
2019-04-09T17:50:24.258Z,12.90
2019-04-09T17:52:55.887Z,12.80
2019-04-09T17:55:27.388Z,12.80
2019-04-09T17:57:58.353Z,12.70
2019-04-09T18:00:29.111Z,12.60
2019-04-09T18:03:00.835Z,12.50
2019-04-09T18:05:31.988Z,12.40
2019-04-09T18:08:02.878Z,12.40
2019-04-09T18:10:33.788Z,12.20
2019-04-09T18:13:05.471Z,12.10
2019-04-09T18:15:36.439Z,12.00
2019-04-09T18:18:08.162Z,12.00
2019-04-09T18:20:39.485Z,11.90
2019-04-09T18:23:11.613Z,11.80
2019-04-09T18:25:53.014Z,11.80
2019-04-09T18:28:16.305Z,11.70
2019-04-09T18:30:47.210Z,11.70
2019-04-09T18:33:18.317Z,11.60
2019-04-09T18:35:50.986Z,11.50
2019-04-09T18:38:22.974Z,11.50
2019-04-09T18:40:56.437Z,11.40
2019-04-09T18:43:28.732Z,11.20
2019-04-09T18:45:59.803Z,11.20
2019-04-09T18:48:39.638Z,11.20
2019-04-09T18:51:03.643Z,11.10
2019-04-09T18:53:35.279Z,11.10
2019-04-09T18:56:06.734Z,10.90
2019-04-09T18:58:37.634Z,10.80
2019-04-09T19:01:08.780Z,10.70
2019-04-09T19:03:40.308Z,10.60
2019-04-09T19:06:12.316Z,10.60
2019-04-09T19:08:43.211Z,10.60
2019-04-09T19:11:13.986Z,10.50
2019-04-09T19:13:45.440Z,10.40
2019-04-09T19:16:16.502Z,10.40
2019-04-09T19:18:47.504Z,10.30
2019-04-09T19:21:18.576Z,10.30
2019-04-09T19:23:50.412Z,10.20
2019-04-09T19:26:22.031Z,10.10
2019-04-09T19:28:54.016Z,10.10
2019-04-09T19:31:25.177Z,10.10
2019-04-09T19:33:56.407Z,10.00
2019-04-09T19:36:27.077Z,10.00
2019-04-09T19:38:58.965Z,9.90
2019-04-09T19:41:30.057Z,9.80
2019-04-09T19:44:01.030Z,9.80
2019-04-09T19:46:31.638Z,9.80
2019-04-09T19:49:04.385Z,9.80
2019-04-09T19:51:34.994Z,9.70
2019-04-09T19:54:06.660Z,9.60
2019-04-09T19:56:37.493Z,9.50
2019-04-09T19:59:09.248Z,9.50
2019-04-09T20:01:40.041Z,9.40
2019-04-09T20:04:10.826Z,9.40
2019-04-09T20:06:41.916Z,9.40
2019-04-09T20:09:13.647Z,9.40
2019-04-09T20:11:45.671Z,9.30
2019-04-09T20:14:27.058Z,9.30
2019-04-09T20:16:57.631Z,9.30
2019-04-09T20:19:29.107Z,9.30
2019-04-09T20:22:01.092Z,9.30
2019-04-09T20:24:33.106Z,9.20
2019-04-09T20:27:04.516Z,9.20
2019-04-09T20:29:35.874Z,9.20
2019-04-09T20:32:06.519Z,9.10
2019-04-09T20:34:37.173Z,9.10
2019-04-09T20:37:08.388Z,9.10
2019-04-09T20:39:41.298Z,9.10
2019-04-09T20:42:12.724Z,9.20
2019-04-09T20:44:44.641Z,9.20
2019-04-09T20:47:16.403Z,9.20
2019-04-09T20:49:47.057Z,9.20
2019-04-09T20:52:18.097Z,9.20
2019-04-09T20:54:55.446Z,9.20
2019-04-09T20:57:26.555Z,9.20
2019-04-09T21:00:15.138Z,9.20
2019-04-09T21:03:00.514Z,9.10
2019-04-09T21:05:31.428Z,9.20
2019-04-09T21:08:01.994Z,9.20
2019-04-09T21:10:32.917Z,9.20
2019-04-09T21:13:03.572Z,9.20
2019-04-09T21:15:34.584Z,9.20
2019-04-09T21:18:05.242Z,9.10
2019-04-09T21:20:35.822Z,9.10
2019-04-09T21:23:07.661Z,9.10
2019-04-09T21:25:38.440Z,9.10
2019-04-09T21:28:09.077Z,9.20
2019-04-09T21:30:39.916Z,9.10
2019-04-09T21:33:11.022Z,9.10
2019-04-09T21:35:41.667Z,9.00
2019-04-09T21:38:12.312Z,9.00
2019-04-09T21:40:42.861Z,9.10
2019-04-09T21:43:13.874Z,9.00
2019-04-09T21:45:45.367Z,9.00
2019-04-09T21:48:16.804Z,9.00
2019-04-09T21:50:48.180Z,8.90
2019-04-09T21:53:19.544Z,9.00
2019-04-09T21:55:50.984Z,8.90
2019-04-09T21:58:22.462Z,8.90
2019-04-09T22:00:59.122Z,8.80
2019-04-09T22:03:30.434Z,8.90
2019-04-09T22:06:01.456Z,8.80
2019-04-09T22:08:32.142Z,8.80
2019-04-09T22:11:04.324Z,8.80
2019-04-09T22:13:35.296Z,8.80
2019-04-09T22:16:05.864Z,8.80
2019-04-09T22:18:37.582Z,8.80
2019-04-09T22:21:08.294Z,8.80
2019-04-09T22:23:45.710Z,8.80
2019-04-09T22:26:11.722Z,8.80
2019-04-09T22:28:42.838Z,8.80
2019-04-09T22:31:13.498Z,8.80
2019-04-09T22:33:44.176Z,8.80
2019-04-09T22:36:14.843Z,8.80
2019-04-09T22:38:47.226Z,8.80
2019-04-09T22:41:17.902Z,8.90
2019-04-09T22:43:48.520Z,8.90
2019-04-09T22:46:20.146Z,8.90
2019-04-09T22:48:50.952Z,8.80
2019-04-09T22:51:21.503Z,8.80
2019-04-09T22:53:52.702Z,8.80
2019-04-09T22:56:23.348Z,8.80
2019-04-09T22:58:54.032Z,8.80
2019-04-09T23:01:49.871Z,8.70
2019-04-09T23:04:33.856Z,8.80
2019-04-09T23:07:38.896Z,8.80
2019-04-09T23:10:28.043Z,8.80
2019-04-09T23:13:00.689Z,8.80
2019-04-09T23:15:37.290Z,8.80
2019-04-09T23:18:08.708Z,8.80
2019-04-09T23:20:39.969Z,8.80
2019-04-09T23:23:11.894Z,8.80
2019-04-09T23:25:44.629Z,8.70
2019-04-09T23:28:15.422Z,8.80
2019-04-09T23:30:46.301Z,8.70
2019-04-09T23:33:18.411Z,8.70
2019-04-09T23:35:49.637Z,8.70
2019-04-09T23:38:20.973Z,8.70
2019-04-09T23:40:52.053Z,8.80
2019-04-09T23:43:22.686Z,8.70
2019-04-09T23:45:53.328Z,8.70
2019-04-09T23:48:24.382Z,8.80
2019-04-09T23:50:56.102Z,8.80
2019-04-09T23:53:27.630Z,8.80
2019-04-09T23:55:58.972Z,8.80
2019-04-09T23:58:30.306Z,8.80
